Time;durP1;ratioP1;P1;durP2;ratioP2;P2;SDS_P1;SDS_P2;PMS_P1;PMS_P2;Temp;Humidity;BMP_temperature;BMP_pressure;BME280_temperature;BME280_humidity;BME280_pressure;Samples;Min_cycle;Max_cycle;Signal;HPM_P1;HPM_P2
2023/08/08 00:00:21;;;;;;;2.07;1.87;;;;;;;12.73;92.08;100218.75;5058794;28;20659;-79
2023/08/08 00:02:48;;;;;;;2.17;1.60;;;;;;;12.86;91.83;100208.72;5072205;28;20230;-79
2023/08/08 00:05:14;;;;;;;1.93;1.60;;;;;;;12.84;93.35;100176.47;5071995;28;20209;-77
2023/08/08 00:07:41;;;;;;;2.40;1.57;;;;;;;12.88;92.59;100185.94;5072247;28;20207;-78
2023/08/08 00:10:10;;;;;;;3.13;1.87;;;;;;;12.98;93.68;100173.41;5071584;28;20211;-79
2023/08/08 00:12:36;;;;;;;2.20;2.00;;;;;;;12.73;95.21;100158.50;5072515;28;20223;-80
2023/08/08 00:15:03;;;;;;;4.20;1.80;;;;;;;12.89;95.00;100138.75;5074311;28;20218;-80
2023/08/08 00:17:29;;;;;;;3.47;1.93;;;;;;;12.82;95.55;100133.75;5077352;28;20208;-80
2023/08/08 00:19:56;;;;;;;1.90;1.80;;;;;;;12.77;95.95;100119.97;5081016;28;20213;-80
2023/08/08 00:22:22;;;;;;;2.27;1.80;;;;;;;12.82;96.21;100113.66;5089507;28;20213;-79
2023/08/08 00:24:49;;;;;;;1.77;1.63;;;;;;;12.81;96.47;100111.97;5089269;28;20209;-79
2023/08/08 00:27:17;;;;;;;3.23;1.90;;;;;;;12.75;97.49;100093.00;5091110;28;20202;-80
2023/08/08 00:29:43;;;;;;;5.27;2.50;;;;;;;12.87;96.66;100092.56;5089806;28;20202;-79
2023/08/08 00:32:10;;;;;;;2.77;1.93;;;;;;;12.83;97.15;100089.19;5078985;28;20233;-77
2023/08/08 00:34:36;;;;;;;3.23;1.77;;;;;;;12.94;96.55;100094.03;5080185;28;20210;-79
2023/08/08 00:37:03;;;;;;;4.37;1.90;;;;;;;12.77;96.70;100101.66;5078230;28;20228;-79
2023/08/08 00:39:30;;;;;;;3.13;1.87;;;;;;;12.85;97.83;100084.75;5075463;28;20214;-79
2023/08/08 00:41:56;;;;;;;2.17;2.00;;;;;;;12.84;97.64;100080.44;5075626;28;20230;-78
2023/08/08 00:44:24;;;;;;;3.00;1.97;;;;;;;12.82;98.05;100057.81;5075411;28;20207;-77
2023/08/08 00:46:51;;;;;;;2.50;2.20;;;;;;;12.80;98.06;100073.56;5075612;28;20230;-78
2023/08/08 00:49:17;;;;;;;2.33;1.80;;;;;;;12.77;98.94;100063.22;5075259;28;20297;-78
2023/08/08 00:51:44;;;;;;;7.37;2.07;;;;;;;12.65;99.07;100055.78;5076174;28;20694;-78
2023/08/08 00:54:11;;;;;;;1.83;1.73;;;;;;;12.84;98.56;100056.88;5075477;28;20222;-79
2023/08/08 00:56:37;;;;;;;2.47;1.67;;;;;;;12.84;98.51;100062.09;5075238;28;20713;-79
2023/08/08 00:59:04;;;;;;;2.33;2.13;;;;;;;12.88;98.55;100078.53;5072031;28;20210;-78
2023/08/08 01:01:32;;;;;;;2.13;1.90;;;;;;;12.93;98.32;100076.63;5071472;28;20235;-78
2023/08/08 01:04:00;;;;;;;2.20;1.97;;;;;;;12.95;98.07;100071.34;5075717;28;20264;-78
2023/08/08 01:06:32;;;;;;;4.50;2.00;;;;;;;12.84;99.24;100063.84;5074949;28;20240;-78
2023/08/08 01:09:05;;;;;;;2.53;1.90;;;;;;;12.88;98.55;100075.91;5075629;28;20200;-78
2023/08/08 01:11:34;;;;;;;2.13;1.93;;;;;;;12.97;97.50;100085.25;5074880;28;20232;-78
2023/08/08 01:14:03;;;;;;;1.87;1.77;;;;;;;13.03;97.31;100098.97;5075247;28;20671;-79
2023/08/08 01:16:30;;;;;;;1.87;1.77;;;;;;;13.02;97.32;100105.16;5075166;28;20692;-79
2023/08/08 01:19:10;;;;;;;3.60;1.97;;;;;;;12.81;98.21;100095.41;5075034;28;20695;-78
2023/08/08 01:21:40;;;;;;;2.03;1.90;;;;;;;12.83;97.77;100102.28;5075511;28;20321;-79
2023/08/08 01:24:18;;;;;;;2.13;1.90;;;;;;;12.98;97.93;100097.44;5075819;28;20582;-78
2023/08/08 01:26:46;;;;;;;2.07;1.87;;;;;;;13.03;96.68;100106.00;5075245;28;20198;-79
2023/08/08 01:29:12;;;;;;;3.30;1.80;;;;;;;13.06;97.01;100103.25;5075535;28;20206;-77
2023/08/08 01:31:39;;;;;;;1.70;1.60;;;;;;;13.12;96.70;100108.28;5074608;28;20226;-79
2023/08/08 01:34:05;;;;;;;2.33;1.40;;;;;;;13.10;96.14;100121.47;5073874;28;20206;-77
2023/08/08 01:36:39;;;;;;;3.53;2.33;;;;;;;13.07;96.65;100126.78;5074976;28;20252;-78
2023/08/08 01:39:10;;;;;;;2.43;2.23;;;;;;;12.89;97.15;100124.81;5074963;28;20214;-78
2023/08/08 01:41:40;;;;;;;3.37;1.90;;;;;;;12.71;98.97;100087.84;5074391;28;20243;-78
2023/08/08 01:44:07;;;;;;;2.20;1.73;;;;;;;12.80;99.23;100064.84;5067369;28;20226;-78
2023/08/08 01:46:36;;;;;;;3.10;2.10;;;;;;;12.77;99.30;100054.50;5074185;28;20202;-79
2023/08/08 01:49:03;;;;;;;2.63;1.60;;;;;;;12.68;99.42;100063.50;5074916;28;20211;-79
2023/08/08 01:51:29;;;;;;;3.87;2.13;;;;;;;12.70;100.00;100031.16;5074518;28;20246;-79
2023/08/08 01:53:56;;;;;;;2.53;2.23;;;;;;;12.63;100.00;100026.16;5075361;28;20302;-78
2023/08/08 01:56:22;;;;;;;2.57;1.97;;;;;;;12.68;100.00;100011.97;5074231;28;20692;-78
2023/08/08 01:58:50;;;;;;;3.53;2.17;;;;;;;12.77;100.00;100017.84;5065467;28;20206;-78
2023/08/08 02:01:16;;;;;;;3.67;2.00;;;;;;;12.84;100.00;100020.19;5053859;28;20236;-78
2023/08/08 02:03:43;;;;;;;2.70;2.37;;;;;;;12.84;100.00;100028.06;5055346;28;20215;-76
2023/08/08 02:06:09;;;;;;;4.70;3.03;;;;;;;12.80;100.00;100013.31;5056933;28;20199;-79
2023/08/08 02:08:36;;;;;;;3.80;2.57;;;;;;;12.72;100.00;100010.13;5056701;28;20200;-79
2023/08/08 02:11:02;;;;;;;3.93;2.63;;;;;;;12.83;100.00;100002.75;5054088;28;20234;-79
2023/08/08 02:13:30;;;;;;;2.93;2.37;;;;;;;12.92;100.00;100009.41;5057030;28;20207;-79
2023/08/08 02:15:58;;;;;;;3.63;2.33;;;;;;;12.94;100.00;100010.22;5056082;28;20633;-79
2023/08/08 02:18:24;;;;;;;2.93;2.03;;;;;;;12.95;100.00;100011.94;5055436;28;20671;-78
2023/08/08 02:20:51;;;;;;;2.83;2.60;;;;;;;13.03;100.00;100011.66;5053634;28;20728;-78
2023/08/08 02:23:18;;;;;;;2.60;2.20;;;;;;;12.98;100.00;100014.44;5059195;28;20206;-78
2023/08/08 02:25:44;;;;;;;3.10;2.73;;;;;;;12.96;100.00;100007.53;5075051;28;20383;-78
2023/08/08 02:28:11;;;;;;;3.07;2.50;;;;;;;12.93;100.00;99995.41;5076778;28;20214;-79
2023/08/08 02:30:38;;;;;;;3.93;3.43;;;;;;;12.91;100.00;99974.50;5076052;28;20229;-79
2023/08/08 02:33:06;;;;;;;3.70;2.73;;;;;;;12.96;100.00;99974.34;5076209;28;20206;-78
2023/08/08 02:35:32;;;;;;;2.60;2.40;;;;;;;13.01;100.00;99975.03;5075993;28;20615;-79
2023/08/08 02:37:59;;;;;;;3.07;2.70;;;;;;;13.08;100.00;99988.75;5075854;28;20222;-79
2023/08/08 02:40:26;;;;;;;3.10;2.60;;;;;;;13.10;100.00;99989.56;5075380;28;20230;-79
2023/08/08 02:42:53;;;;;;;3.10;2.63;;;;;;;13.15;100.00;99995.50;5074967;28;20256;-78
2023/08/08 02:45:19;;;;;;;3.63;2.90;;;;;;;13.13;100.00;100001.72;5072692;28;20571;-78
2023/08/08 02:47:46;;;;;;;2.50;2.30;;;;;;;13.17;100.00;100004.16;5073677;28;20579;-80
2023/08/08 02:50:14;;;;;;;3.50;2.27;;;;;;;13.26;100.00;100003.81;5073207;28;20638;-78
2023/08/08 02:52:40;;;;;;;2.83;2.60;;;;;;;13.24;100.00;99995.16;5073832;28;20481;-78
2023/08/08 02:55:08;;;;;;;3.37;2.90;;;;;;;13.30;100.00;100002.81;5075126;28;20207;-79
2023/08/08 02:57:34;;;;;;;2.53;2.33;;;;;;;13.33;100.00;100008.88;5076117;28;20247;-79
2023/08/08 03:00:01;;;;;;;3.10;2.53;;;;;;;13.30;100.00;100013.31;5076260;28;20217;-78
2023/08/08 03:02:27;;;;;;;5.20;2.50;;;;;;;13.30;100.00;100008.06;5075803;28;20226;-79
2023/08/08 03:04:54;;;;;;;3.07;2.77;;;;;;;13.28;100.00;99994.13;5067104;28;20204;-79
2023/08/08 03:07:22;;;;;;;3.30;3.00;;;;;;;13.29;100.00;100003.72;5056528;28;20282;-79
2023/08/08 03:09:48;;;;;;;3.00;2.70;;;;;;;13.30;100.00;100009.84;5055397;28;20214;-79
2023/08/08 03:12:14;;;;;;;3.37;2.90;;;;;;;13.22;100.00;100004.84;5052935;28;20223;-78
2023/08/08 03:14:41;;;;;;;2.83;2.63;;;;;;;13.31;100.00;100006.28;5054565;28;20592;-78
2023/08/08 03:17:08;;;;;;;2.87;2.67;;;;;;;13.33;100.00;100020.19;5053221;28;20286;-78
2023/08/08 03:19:34;;;;;;;3.03;2.77;;;;;;;13.38;100.00;100009.53;5053702;28;20211;-78
2023/08/08 03:22:01;;;;;;;2.73;2.53;;;;;;;13.34;100.00;100005.31;5054634;28;20234;-79
2023/08/08 03:24:28;;;;;;;5.80;2.60;;;;;;;13.30;100.00;100013.31;5054972;28;20234;-79
2023/08/08 03:26:55;;;;;;;3.83;2.60;;;;;;;13.35;100.00;100007.91;5054624;28;20204;-78
2023/08/08 03:29:21;;;;;;;2.97;2.33;;;;;;;13.35;100.00;100014.91;5053101;28;20679;-79
2023/08/08 03:31:48;;;;;;;3.00;2.70;;;;;;;13.26;100.00;100006.44;5052855;28;20228;-79
2023/08/08 03:34:14;;;;;;;2.97;2.43;;;;;;;13.33;100.00;100011.50;5053087;28;20211;-79
2023/08/08 03:36:42;;;;;;;3.27;2.97;;;;;;;13.30;100.00;100012.47;5053142;28;20231;-78
2023/08/08 03:39:08;;;;;;;2.87;2.43;;;;;;;13.41;100.00;100012.91;5052642;28;20221;-79
2023/08/08 03:42:25;;;;;;;3.43;2.67;;;;;;;13.37;100.00;100026.19;5051974;28;20228;-79
2023/08/08 03:44:52;;;;;;;3.10;2.40;;;;;;;13.43;99.43;100039.91;5065009;28;20691;-78
2023/08/08 03:47:19;;;;;;;2.37;2.13;;;;;;;13.43;99.27;100055.66;5072552;28;20207;-78
2023/08/08 03:49:45;;;;;;;2.37;2.13;;;;;;;13.32;99.85;100052.59;5072928;28;20219;-79
2023/08/08 03:52:12;;;;;;;4.90;2.37;;;;;;;13.38;100.00;100036.63;5072440;28;20688;-79
2023/08/08 03:54:38;;;;;;;4.43;1.90;;;;;;;13.39;100.00;100034.84;5072708;28;20205;-78
2023/08/08 03:57:05;;;;;;;2.40;2.07;;;;;;;13.46;99.66;100037.19;5071521;28;20235;-81
2023/08/08 03:59:32;;;;;;;2.40;2.20;;;;;;;13.49;99.29;100039.69;5072071;28;20220;-79
2023/08/08 04:02:17;;;;;;;4.20;2.03;;;;;;;13.35;99.52;100030.63;5072861;28;20230;-79
2023/08/08 04:04:44;;;;;;;2.57;2.37;;;;;;;13.36;99.80;100037.56;5072761;28;20218;-78
2023/08/08 04:07:10;;;;;;;3.83;2.33;;;;;;;13.34;100.00;100021.94;5072048;28;20611;-79
2023/08/08 04:09:37;;;;;;;3.53;2.00;;;;;;;13.44;100.00;100020.66;5071720;28;20203;-79
2023/08/08 04:12:04;;;;;;;2.30;2.10;;;;;;;13.34;99.68;100035.03;5072023;28;20226;-77
2023/08/08 04:14:30;;;;;;;3.00;2.70;;;;;;;13.28;100.00;100017.72;5072439;28;20301;-79
2023/08/08 04:16:57;;;;;;;2.40;2.10;;;;;;;13.38;100.00;100010.41;5071993;28;20227;-78
2023/08/08 04:19:26;;;;;;;2.10;2.00;;;;;;;13.37;100.00;100019.16;5071959;28;20756;-78
2023/08/08 04:21:52;;;;;;;5.70;2.40;;;;;;;13.34;100.00;100014.06;5071459;28;20640;-78
2023/08/08 04:24:19;;;;;;;2.23;1.67;;;;;;;13.45;100.00;100011.88;5072151;28;20672;-79
2023/08/08 04:26:45;;;;;;;2.80;2.20;;;;;;;13.51;100.00;100029.16;5075838;28;20266;-80
2023/08/08 04:29:11;;;;;;;3.87;2.80;;;;;;;13.55;99.66;100029.88;5074330;28;20215;-78
2023/08/08 04:31:38;;;;;;;2.37;1.63;;;;;;;13.59;99.17;100047.22;5072249;28;20230;-79
2023/08/08 04:34:04;;;;;;;1.93;1.77;;;;;;;13.44;99.42;100046.03;5071867;28;20211;-80
2023/08/08 04:36:33;;;;;;;3.30;2.23;;;;;;;13.51;99.54;100029.16;5071639;28;20248;-79
2023/08/08 04:38:59;;;;;;;2.53;2.00;;;;;;;13.50;99.82;100037.94;5071791;28;20211;-79
2023/08/08 04:41:26;;;;;;;2.60;1.73;;;;;;;13.47;99.76;100038.03;5072535;28;20229;-79
2023/08/08 04:43:52;;;;;;;3.00;2.37;;;;;;;13.46;100.00;100031.09;5072587;28;20567;-78
2023/08/08 04:46:19;;;;;;;3.93;2.63;;;;;;;13.53;99.98;100023.84;5071688;28;20212;-79
2023/08/08 04:48:45;;;;;;;2.77;1.90;;;;;;;13.59;99.61;100032.31;5071880;28;20214;-79
2023/08/08 04:51:12;;;;;;;2.50;1.87;;;;;;;13.58;99.31;100032.41;5072200;28;20234;-78
2023/08/08 04:53:39;;;;;;;3.87;2.67;;;;;;;13.46;99.79;100024.09;5071935;28;20208;-78
2023/08/08 04:56:06;;;;;;;2.00;1.90;;;;;;;13.50;100.00;100011.72;5071920;28;20696;-79
2023/08/08 04:58:32;;;;;;;2.10;1.90;;;;;;;13.55;99.63;100008.91;5071281;28;20224;-78
2023/08/08 05:00:59;;;;;;;2.00;1.77;;;;;;;13.54;99.55;100010.69;5071710;28;20235;-78
2023/08/08 05:03:25;;;;;;;2.90;2.40;;;;;;;13.45;99.56;100026.75;5071488;28;20302;-79
2023/08/08 05:05:52;;;;;;;3.33;1.80;;;;;;;13.57;100.00;100004.47;5072135;28;20205;-79
2023/08/08 05:08:18;;;;;;;2.40;2.20;;;;;;;13.60;99.38;100020.94;5071509;28;20231;-79
2023/08/08 05:10:46;;;;;;;5.10;2.60;;;;;;;13.62;98.73;100021.75;5075525;28;20230;-79
2023/08/08 05:13:13;;;;;;;4.83;2.90;;;;;;;13.67;99.09;100029.41;5075912;28;20695;-80
2023/08/08 05:15:40;;;;;;;2.57;2.37;;;;;;;13.74;98.94;100017.78;5077419;28;20206;-79
2023/08/08 05:18:06;;;;;;;2.90;2.70;;;;;;;13.79;98.72;100014.97;5076101;28;20233;-79
2023/08/08 05:20:33;;;;;;;2.87;2.67;;;;;;;13.87;98.35;100023.41;5076751;28;20283;-79
2023/08/08 05:22:59;;;;;;;3.37;2.43;;;;;;;13.92;98.66;100021.47;5077522;28;20214;-79
2023/08/08 05:25:26;;;;;;;3.30;3.00;;;;;;;13.79;97.54;100042.06;5075644;28;20570;-79
2023/08/08 05:27:54;;;;;;;3.03;2.80;;;;;;;13.89;98.30;100024.19;5075045;28;20207;-78
2023/08/08 05:30:20;;;;;;;4.57;3.17;;;;;;;14.02;98.17;100019.31;5075448;28;20203;-78
2023/08/08 05:32:46;;;;;;;3.43;3.13;;;;;;;14.01;97.58;100025.47;5075408;28;20205;-79
2023/08/08 05:35:13;;;;;;;3.33;3.03;;;;;;;14.06;97.87;100026.16;5074991;28;20214;-78
2023/08/08 05:37:39;;;;;;;3.40;3.20;;;;;;;14.00;97.87;100023.78;5075529;28;20225;-78
2023/08/08 05:40:07;;;;;;;4.17;3.43;;;;;;;14.04;97.57;100020.97;5075078;28;20207;-78
2023/08/08 05:42:34;;;;;;;5.13;3.63;;;;;;;14.07;98.12;100009.47;5068976;28;20559;-78
2023/08/08 05:45:02;;;;;;;4.20;3.90;;;;;;;14.12;97.53;100012.78;5071681;28;20298;-79
2023/08/08 05:47:28;;;;;;;4.30;3.50;;;;;;;14.18;97.42;100025.66;5074405;28;20620;-78
2023/08/08 05:49:55;;;;;;;4.43;3.87;;;;;;;14.23;97.49;100025.47;5073723;28;20233;-78
2023/08/08 05:52:22;;;;;;;4.30;3.90;;;;;;;14.10;97.55;100039.09;5074188;28;20238;-79
2023/08/08 05:54:48;;;;;;;4.03;3.63;;;;;;;14.22;98.29;100022.00;5073954;28;20231;-78
2023/08/08 05:57:15;;;;;;;4.47;4.10;;;;;;;14.22;97.27;100029.03;5073150;28;20235;-80
2023/08/08 05:59:44;;;;;;;5.40;4.50;;;;;;;14.28;97.21;100037.50;5073604;28;20199;-79
2023/08/08 06:02:12;;;;;;;3.83;3.60;;;;;;;14.25;96.83;100035.00;5062752;28;20318;-78
2023/08/08 06:04:38;;;;;;;4.07;3.57;;;;;;;14.28;97.57;100040.13;5054576;28;20203;-77
2023/08/08 06:07:06;;;;;;;4.40;4.10;;;;;;;14.38;97.49;100030.09;5062023;28;20246;-78
2023/08/08 06:09:32;;;;;;;4.10;3.80;;;;;;;14.27;96.58;100046.28;5052942;28;20205;-78
2023/08/08 06:11:59;;;;;;;5.00;4.57;;;;;;;14.31;97.43;100044.41;5066258;28;20232;-77
2023/08/08 06:14:25;;;;;;;4.40;4.03;;;;;;;14.39;96.89;100046.69;5072902;28;20211;-78
2023/08/08 06:16:51;;;;;;;4.97;4.00;;;;;;;14.45;96.89;100052.56;5073229;28;20254;-76
2023/08/08 06:19:19;;;;;;;4.80;4.40;;;;;;;14.38;97.00;100050.25;5072717;28;20231;-78
2023/08/08 06:21:46;;;;;;;5.03;4.17;;;;;;;14.42;96.80;100043.97;5073525;28;20230;-76
2023/08/08 06:24:13;;;;;;;4.17;3.87;;;;;;;14.37;96.75;100053.78;5055313;28;20215;-77
2023/08/08 06:26:39;;;;;;;4.67;4.27;;;;;;;14.33;97.25;100055.69;5053268;28;20212;-76
2023/08/08 06:29:06;;;;;;;4.13;3.90;;;;;;;14.39;97.41;100046.69;5053778;28;20680;-78
2023/08/08 06:31:32;;;;;;;4.30;3.90;;;;;;;14.46;96.82;100050.78;5075601;28;20234;-79
2023/08/08 06:33:59;;;;;;;3.97;3.77;;;;;;;14.52;96.73;100055.78;5075669;28;20271;-79
2023/08/08 06:36:27;;;;;;;4.20;3.90;;;;;;;14.44;97.31;100057.88;5075173;28;20211;-79
2023/08/08 06:38:53;;;;;;;4.20;3.90;;;;;;;14.53;97.60;100046.13;5075721;28;20235;-80
2023/08/08 06:41:19;;;;;;;4.97;4.20;;;;;;;14.61;97.56;100049.34;5076279;28;20611;-79
2023/08/08 06:43:46;;;;;;;6.93;4.20;;;;;;;14.74;97.18;100055.78;5077083;28;20204;-79
2023/08/08 06:46:12;;;;;;;5.77;5.30;;;;;;;14.77;96.42;100058.28;5075112;28;20214;-79
2023/08/08 06:48:39;;;;;;;5.00;4.60;;;;;;;14.87;95.42;100079.78;5075429;28;20202;-79
2023/08/08 06:51:06;;;;;;;5.67;5.13;;;;;;;14.85;95.37;100081.59;5074610;28;20721;-79
2023/08/08 06:53:33;;;;;;;5.40;4.90;;;;;;;14.85;95.74;100092.13;5066284;28;20208;-77
2023/08/08 06:59:22;;;;;;;6.03;5.63;;;;;;;14.99;95.07;100094.16;5064575;28;20265;-78
2023/08/08 07:01:49;;;;;;;6.00;5.50;;;;;;;15.02;94.13;100117.66;5072619;28;20565;-77
2023/08/08 07:04:15;;;;;;;6.17;5.77;;;;;;;14.93;93.96;100107.56;5072508;28;20215;-79
2023/08/08 07:06:43;;;;;;;6.37;5.97;;;;;;;14.87;94.43;100111.31;5072926;28;20229;-77
2023/08/08 07:09:11;;;;;;;6.33;5.87;;;;;;;14.92;93.98;100104.06;5073014;28;20206;-78
2023/08/08 07:11:38;;;;;;;6.20;5.70;;;;;;;15.05;93.42;100118.41;5073009;28;20226;-77
2023/08/08 07:14:05;;;;;;;6.70;6.30;;;;;;;15.09;93.07;100122.59;5071974;28;20214;-78
2023/08/08 07:16:31;;;;;;;6.17;5.77;;;;;;;15.21;92.08;100149.31;5064556;28;20212;-78
2023/08/08 07:18:58;;;;;;;6.30;5.90;;;;;;;15.29;91.83;100158.56;5073058;28;20787;-79
2023/08/08 07:21:25;;;;;;;6.10;5.70;;;;;;;15.39;91.03;100193.22;5073740;28;20231;-79
2023/08/08 07:23:51;;;;;;;6.30;5.90;;;;;;;15.37;91.02;100187.16;5073012;28;20199;-79
2023/08/08 07:26:19;;;;;;;7.20;6.50;;;;;;;15.37;89.71;100197.69;5072991;28;20218;-78
2023/08/08 07:28:46;;;;;;;6.83;6.23;;;;;;;15.43;88.94;100215.81;5073418;28;20596;-80
2023/08/08 07:31:12;;;;;;;5.73;5.33;;;;;;;15.46;88.33;100242.00;5072464;28;20223;-78
2023/08/08 07:33:38;;;;;;;6.40;5.80;;;;;;;15.54;88.52;100228.53;5073019;28;20207;-78
2023/08/08 07:36:05;;;;;;;6.20;5.60;;;;;;;15.56;86.93;100247.75;5074238;28;20214;-78
2023/08/08 07:38:33;;;;;;;5.07;4.77;;;;;;;15.63;85.49;100293.06;5072974;28;20591;-78
2023/08/08 07:40:59;;;;;;;5.50;5.00;;;;;;;15.71;83.99;100329.56;5072334;28;20705;-78
2023/08/08 07:43:27;;;;;;;5.53;5.03;;;;;;;15.82;84.98;100320.34;5071302;28;20209;-78
2023/08/08 07:45:54;;;;;;;5.63;5.13;;;;;;;15.86;85.19;100324.56;5072557;28;20298;-78
2023/08/08 07:48:20;;;;;;;5.13;4.83;;;;;;;15.80;84.27;100337.13;5071557;28;20217;-78
2023/08/08 07:50:47;;;;;;;5.30;4.90;;;;;;;15.92;84.14;100351.53;5072325;28;20238;-78
2023/08/08 07:53:13;;;;;;;7.30;4.67;;;;;;;15.93;81.95;100376.94;5072233;28;20204;-78
2023/08/08 07:55:40;;;;;;;5.07;4.57;;;;;;;15.91;82.17;100392.78;5071960;28;20200;-78
2023/08/08 07:58:06;;;;;;;5.10;4.70;;;;;;;15.83;80.75;100426.47;5071337;28;20592;-78
2023/08/08 08:00:34;;;;;;;5.57;4.77;;;;;;;15.81;81.66;100418.63;5072687;28;20223;-78
2023/08/08 08:03:00;;;;;;;5.17;4.77;;;;;;;16.02;83.36;100376.56;5082876;28;20220;-79
2023/08/08 08:05:27;;;;;;;5.57;5.17;;;;;;;16.04;82.34;100378.19;5081991;28;20211;-79
2023/08/08 08:07:53;;;;;;;5.20;4.80;;;;;;;16.12;82.56;100369.13;5074570;28;20231;-78
2023/08/08 08:10:20;;;;;;;3.57;3.27;;;;;;;16.10;80.17;100397.31;5075020;28;20215;-80
2023/08/08 08:12:47;;;;;;;3.80;3.60;;;;;;;16.22;80.37;100408.16;5074322;28;20211;-79
2023/08/08 08:15:14;;;;;;;3.90;3.60;;;;;;;16.35;79.68;100426.06;5073809;28;20212;-78
2023/08/08 08:17:42;;;;;;;4.10;3.30;;;;;;;16.35;78.74;100455.91;5073929;28;20207;-80
2023/08/08 08:20:11;;;;;;;3.10;2.90;;;;;;;16.36;77.63;100476.06;5074585;28;20205;-80
2023/08/08 08:22:38;;;;;;;3.87;3.23;;;;;;;16.53;77.69;100480.63;5076936;28;20637;-79
2023/08/08 08:25:07;;;;;;;2.80;2.60;;;;;;;16.65;76.76;100484.50;5075211;28;20207;-79
2023/08/08 08:27:34;;;;;;;3.00;2.77;;;;;;;16.73;75.96;100516.66;5073913;28;20287;-80
2023/08/08 08:30:00;;;;;;;3.13;2.80;;;;;;;16.62;73.74;100555.78;5075388;28;20203;-78
2023/08/08 08:32:27;;;;;;;3.90;2.50;;;;;;;16.57;74.50;100576.19;5076064;28;20315;-80
2023/08/08 08:34:54;;;;;;;3.17;2.90;;;;;;;16.52;75.36;100559.72;5075195;28;20494;-79
2023/08/08 08:37:21;;;;;;;3.17;2.87;;;;;;;16.27;76.86;100524.72;5074623;28;20255;-79
2023/08/08 08:39:47;;;;;;;4.13;3.83;;;;;;;16.13;80.59;100449.81;5075194;28;20224;-79
2023/08/08 08:42:15;;;;;;;3.60;3.30;;;;;;;15.89;84.51;100345.47;4372987;28;10000715;-79
2023/08/08 08:44:43;;;;;;;4.33;3.93;;;;;;;15.41;89.03;100241.34;5073050;28;20203;-79
2023/08/08 08:47:13;;;;;;;4.83;4.43;;;;;;;15.28;95.74;100071.84;5077068;28;20212;-80
2023/08/08 08:49:42;;;;;;;5.27;4.77;;;;;;;15.15;98.57;99965.53;5076727;28;20207;-79
2023/08/08 08:52:10;;;;;;;5.10;4.67;;;;;;;15.01;99.68;99917.06;5076585;28;20243;-79
2023/08/08 08:54:38;;;;;;;5.03;4.47;;;;;;;14.74;100.00;99890.25;5075833;28;20215;-78
2023/08/08 08:57:05;;;;;;;4.80;4.33;;;;;;;14.67;100.00;99876.53;5075102;28;20211;-78
2023/08/08 08:59:31;;;;;;;6.53;4.80;;;;;;;14.72;100.00;99870.22;5066392;28;20232;-78
2023/08/08 09:01:59;;;;;;;4.07;3.77;;;;;;;14.62;100.00;99856.66;5076195;28;20599;-79
2023/08/08 09:04:27;;;;;;;4.60;4.30;;;;;;;14.61;100.00;99850.56;5076109;28;20209;-79
2023/08/08 09:06:53;;;;;;;4.67;3.83;;;;;;;14.57;100.00;99872.63;5076651;28;20219;-79
2023/08/08 09:09:22;;;;;;;3.60;3.30;;;;;;;14.58;100.00;99889.22;5075428;28;20219;-79
2023/08/08 09:11:50;;;;;;;3.83;3.53;;;;;;;14.41;100.00;99888.19;5074787;28;20655;-78
2023/08/08 09:14:18;;;;;;;3.47;3.17;;;;;;;14.50;100.00;99856.25;5074348;28;20211;-79
2023/08/08 09:16:46;;;;;;;4.90;4.40;;;;;;;14.59;100.00;99847.16;5074881;28;20214;-78
2023/08/08 09:19:13;;;;;;;7.23;6.10;;;;;;;14.67;100.00;99821.38;5074453;28;20235;-78
2023/08/08 09:21:39;;;;;;;4.97;4.47;;;;;;;14.71;100.00;99819.47;5072680;28;20728;-78
2023/08/08 09:24:06;;;;;;;5.17;4.67;;;;;;;14.69;100.00;99847.59;5072903;28;20207;-79
2023/08/08 09:26:35;;;;;;;5.50;5.03;;;;;;;14.83;100.00;99860.09;5069822;28;20587;-78
2023/08/08 09:29:02;;;;;;;5.90;5.40;;;;;;;15.00;100.00;99857.50;5052410;28;20203;-78
2023/08/08 09:31:29;;;;;;;6.00;5.53;;;;;;;14.97;98.08;99925.16;5050467;28;20236;-77
2023/08/08 09:33:58;;;;;;;5.33;4.50;;;;;;;14.86;98.69;99959.78;5051276;28;20689;-79
2023/08/08 09:36:25;;;;;;;5.50;5.10;;;;;;;14.49;100.00;99909.69;5051618;28;20336;-79
2023/08/08 09:38:52;;;;;;;6.20;5.80;;;;;;;14.46;100.00;99849.41;5050689;28;20610;-78
2023/08/08 09:41:18;;;;;;;5.30;4.77;;;;;;;14.40;100.00;99836.56;5067962;28;20238;-78
2023/08/08 09:43:46;;;;;;;5.67;5.20;;;;;;;14.23;100.00;99823.31;5070434;28;20208;-79
2023/08/08 09:46:13;;;;;;;5.27;4.77;;;;;;;14.06;100.00;99792.59;5070843;28;20680;-78
2023/08/08 09:48:41;;;;;;;5.50;5.07;;;;;;;14.29;100.00;99794.19;5070607;28;20301;-78
2023/08/08 09:51:09;;;;;;;5.87;5.40;;;;;;;14.30;100.00;99780.97;5072524;28;20308;-77
2023/08/08 09:53:36;;;;;;;6.33;5.73;;;;;;;14.48;100.00;99762.69;5071042;28;20759;-78
2023/08/08 09:56:04;;;;;;;7.40;5.83;;;;;;;14.63;100.00;99745.44;5072540;28;20212;-78
2023/08/08 09:58:31;;;;;;;7.30;6.70;;;;;;;14.52;100.00;99760.78;5072037;28;20299;-78
2023/08/08 10:00:59;;;;;;;7.60;6.87;;;;;;;14.60;100.00;99741.16;5067344;28;20228;-78
2023/08/08 10:03:27;;;;;;;6.20;5.70;;;;;;;14.43;100.00;99744.53;5052496;28;20219;-78
2023/08/08 10:05:54;;;;;;;5.63;5.13;;;;;;;14.55;100.00;99751.00;5052141;28;20549;-78
2023/08/08 10:08:21;;;;;;;5.93;5.43;;;;;;;14.74;100.00;99744.91;5051571;28;20302;-78
2023/08/08 10:10:49;;;;;;;6.23;5.73;;;;;;;14.92;100.00;99761.56;5065861;28;20253;-79
2023/08/08 10:13:20;;;;;;;5.80;5.30;;;;;;;15.13;100.00;99786.81;5074113;28;20215;-79
2023/08/08 10:15:47;;;;;;;7.47;5.43;;;;;;;15.35;100.00;99788.41;5072272;28;20242;-77
2023/08/08 10:18:15;;;;;;;6.40;4.80;;;;;;;15.33;100.00;99885.78;5071755;28;20215;-77
2023/08/08 10:20:43;;;;;;;5.80;5.40;;;;;;;15.44;100.00;99916.81;5071452;28;20314;-77
2023/08/08 10:23:10;;;;;;;6.60;6.00;;;;;;;15.51;100.00;99914.78;5064150;28;20216;-77
2023/08/08 10:25:37;;;;;;;7.07;6.57;;;;;;;15.61;100.00;99911.59;5050771;28;20633;-78
2023/08/08 10:28:19;;;;;;;6.47;5.87;;;;;;;15.68;99.72;99956.91;5049702;28;20215;-77
2023/08/08 10:30:46;;;;;;;6.07;5.57;;;;;;;15.77;96.64;100003.00;5050416;28;20302;-77
2023/08/08 10:33:19;;;;;;;6.43;5.93;;;;;;;15.94;99.04;99996.97;5049582;28;20216;-77
2023/08/08 10:35:57;;;;;;;5.23;4.83;;;;;;;16.01;93.69;100066.78;5050195;28;20580;-77
2023/08/08 10:38:24;;;;;;;6.03;5.30;;;;;;;16.14;91.90;100107.41;5050538;28;20212;-78
2023/08/08 10:40:57;;;;;;;5.83;5.37;;;;;;;16.43;92.91;100115.69;5051013;28;20229;-77
2023/08/08 10:43:27;;;;;;;4.93;4.33;;;;;;;16.53;87.90;100213.59;5068044;28;20212;-77
2023/08/08 10:45:53;;;;;;;5.30;4.90;;;;;;;16.71;90.49;100177.59;5071150;28;20203;-78
2023/08/08 10:48:21;;;;;;;11.10;5.20;;;;;;;16.86;90.17;100183.00;5070581;28;20211;-77
2023/08/08 10:50:48;;;;;;;5.80;4.90;;;;;;;16.99;86.31;100250.97;5070498;28;20721;-79
2023/08/08 10:53:14;;;;;;;4.87;4.47;;;;;;;17.07;85.63;100264.66;5070683;28;20201;-78
2023/08/08 10:55:41;;;;;;;13.33;4.93;;;;;;;17.07;82.97;100302.41;5070478;28;20265;-79
2023/08/08 10:58:09;;;;;;;4.40;4.00;;;;;;;17.18;81.13;100337.97;5072261;28;20678;-78
2023/08/08 11:00:39;;;;;;;3.70;3.40;;;;;;;17.19;78.46;100422.31;5070709;28;21035;-79
2023/08/08 11:03:06;;;;;;;6.93;3.20;;;;;;;17.13;78.76;100453.41;5070585;28;20211;-78
2023/08/08 11:05:35;;;;;;;3.30;3.00;;;;;;;17.02;78.23;100475.81;5070554;28;20590;-78
2023/08/08 11:08:04;;;;;;;3.20;2.97;;;;;;;16.88;77.84;100494.06;5068787;28;20207;-78
2023/08/08 11:10:35;;;;;;;3.80;3.50;;;;;;;16.40;76.50;100517.16;5069858;28;20720;-77
2023/08/08 11:13:03;;;;;;;3.40;3.10;;;;;;;16.40;77.55;100508.41;5069358;28;20211;-78
2023/08/08 11:15:31;;;;;;;2.90;2.37;;;;;;;16.28;75.25;100528.19;5068999;28;20244;-78
2023/08/08 11:17:58;;;;;;;2.43;2.23;;;;;;;16.44;76.15;100537.19;5049734;28;20216;-79
2023/08/08 11:20:25;;;;;;;2.40;2.30;;;;;;;16.55;74.15;100541.13;5049521;28;20229;-77
2023/08/08 11:22:54;;;;;;;2.43;2.23;;;;;;;16.75;74.28;100549.06;5061277;28;20212;-78
2023/08/08 11:25:21;;;;;;;1.97;1.83;;;;;;;17.05;72.00;100602.28;5069605;28;20240;-78
2023/08/08 11:27:52;;;;;;;1.80;1.70;;;;;;;17.25;67.88;100679.72;5068905;28;20204;-78